Time;durP1;ratioP1;P1;durP2;ratioP2;P2;SDS_P1;SDS_P2;PMS_P1;PMS_P2;Temp;Humidity;BMP_temperature;BMP_pressure;BME280_temperature;BME280_humidity;BME280_pressure;Samples;Min_cycle;Max_cycle;Signal;HPM_P1;HPM_P2
2023/06/21 00:00:47;;;;;;;5.47;4.77;;;24.40;99.90;;;25.05;nan;100365.38;4984075;28;20646;-68
2023/06/21 00:03:15;;;;;;;5.77;4.00;;;24.40;99.90;;;25.06;nan;100361.69;4984105;28;20626;-68
2023/06/21 00:05:43;;;;;;;14.07;3.87;;;24.40;99.90;;;25.10;nan;100360.22;4984112;28;20709;-69
2023/06/21 00:08:12;;;;;;;4.90;4.40;;;24.50;99.90;;;25.03;nan;100366.59;4990199;28;20626;-68
2023/06/21 00:10:39;;;;;;;5.97;4.63;;;24.40;99.90;;;24.96;nan;100366.63;4990132;28;20673;-68
2023/06/21 00:13:06;;;;;;;8.77;4.70;;;24.40;99.90;;;24.92;nan;100362.75;4990216;28;20633;-69
2023/06/21 00:15:33;;;;;;;4.47;4.00;;;24.30;99.90;;;24.94;nan;100363.34;4990086;28;20744;-68
2023/06/21 00:18:00;;;;;;;6.33;4.67;;;24.30;99.90;;;24.93;nan;100359.06;4990176;28;21181;-67
2023/06/21 00:20:27;;;;;;;4.90;4.03;;;24.30;99.90;;;24.94;nan;100362.50;4986305;28;20703;-68
2023/06/21 00:22:57;;;;;;;8.03;4.50;;;24.30;99.90;;;24.95;nan;100362.34;4987086;28;20631;-68
2023/06/21 00:25:24;;;;;;;6.43;4.30;;;24.30;99.90;;;24.94;nan;100363.34;4990418;28;20653;-68
2023/06/21 00:27:51;;;;;;;10.87;4.37;;;24.30;99.90;;;24.96;nan;100363.97;4990651;28;20642;-68
2023/06/21 00:30:18;;;;;;;7.30;5.00;;;24.30;99.90;;;24.98;nan;100361.09;4995576;28;20642;-68
2023/06/21 00:32:45;;;;;;;5.50;4.40;;;24.30;99.90;;;25.01;nan;100360.66;4968448;28;20649;-68
2023/06/21 00:35:12;;;;;;;7.33;4.27;;;24.30;99.90;;;25.01;nan;100366.00;4996868;28;21092;-68
2023/06/21 00:37:39;;;;;;;6.57;5.00;;;24.40;99.90;;;24.97;nan;100373.63;4989399;28;20657;-68
2023/06/21 00:40:11;;;;;;;4.57;4.00;;;24.40;99.90;;;25.01;nan;100376.69;4990917;28;21100;-68
2023/06/21 00:42:39;;;;;;;7.87;4.40;;;24.40;99.90;;;25.03;nan;100371.94;4997676;28;20614;-67
2023/06/21 00:45:08;;;;;;;5.03;4.53;;;24.40;99.90;;;25.03;nan;100371.94;4980420;28;20670;-67
2023/06/21 00:47:36;;;;;;;3.80;3.50;;;24.40;99.90;;;24.98;nan;100382.44;4990034;28;20706;-67
2023/06/21 00:50:03;;;;;;;4.67;3.70;;;24.30;99.90;;;24.90;nan;100393.31;4990211;28;20626;-69
2023/06/21 00:52:31;;;;;;;4.20;3.57;;;24.30;99.90;;;24.86;nan;100403.59;4957591;28;20642;-67
2023/06/21 00:54:58;;;;;;;4.63;3.87;;;24.30;99.90;;;24.86;nan;100405.44;4971023;28;20741;-68
2023/06/21 00:57:25;;;;;;;4.77;3.70;;;24.20;99.90;;;24.85;nan;100407.31;4990160;28;20641;-67
2023/06/21 00:59:53;;;;;;;3.90;3.60;;;24.30;99.90;;;24.85;nan;100407.31;4988816;28;20639;-67
2023/06/21 01:02:20;;;;;;;3.87;3.47;;;24.30;99.90;;;24.83;nan;100417.34;4990397;28;21037;-68
2023/06/21 01:04:49;;;;;;;3.67;3.37;;;24.20;99.90;;;24.80;nan;100420.47;4993380;28;20742;-68
2023/06/21 01:08:04;;;;;;;4.93;3.97;;;24.20;99.90;;;24.76;nan;100413.91;4989612;28;20642;-68
2023/06/21 01:10:46;;;;;;;6.43;3.83;;;24.20;99.90;;;24.75;nan;100412.25;4956744;28;20646;-68
2023/06/21 01:13:58;;;;;;;3.50;3.20;;;24.20;99.90;;;24.67;nan;100415.94;4988066;28;20628;-69
2023/06/21 01:16:39;;;;;;;3.97;3.57;;;24.10;99.90;;;24.59;nan;100417.97;4987224;28;20669;-69
2023/06/21 01:19:16;;;;;;;3.23;2.93;;;24.00;99.90;;;24.47;nan;100401.75;4974864;28;20622;-68
2023/06/21 01:21:43;;;;;;;4.40;3.73;;;23.90;99.90;;;24.42;nan;100406.09;4968918;28;20649;-68
2023/06/21 01:24:47;;;;;;;7.73;3.37;;;23.90;99.90;;;24.36;nan;100401.56;4970228;28;20614;-68
2023/06/21 01:27:43;;;;;;;4.27;3.50;;;23.80;99.90;;;24.37;nan;100401.34;4972425;28;20688;-68
2023/06/21 01:30:12;;;;;;;5.03;3.60;;;23.80;99.90;;;24.37;nan;100401.34;4968187;28;20619;-68
2023/06/21 01:32:40;;;;;;;4.30;3.80;;;23.80;99.90;;;24.37;nan;100403.19;4970400;28;20640;-68
2023/06/21 01:35:09;;;;;;;4.00;3.47;;;23.80;99.90;;;24.38;nan;100413.66;4988948;28;20685;-68
2023/06/21 01:37:37;;;;;;;4.20;3.73;;;23.80;99.90;;;24.37;nan;100420.03;5013536;28;20637;-68
2023/06/21 01:40:10;;;;;;;4.20;3.80;;;23.80;99.90;;;24.36;nan;100423.69;5005948;28;21229;-67
2023/06/21 01:42:37;;;;;;;4.17;3.77;;;23.70;99.90;;;24.34;nan;100420.41;4994525;28;20621;-68
2023/06/21 01:45:05;;;;;;;5.63;4.33;;;23.70;99.90;;;24.32;nan;100419.81;4997255;28;20693;-68
2023/06/21 01:47:34;;;;;;;5.97;4.10;;;23.70;99.90;;;24.36;nan;100417.56;4998457;28;20629;-67
2023/06/21 01:50:05;;;;;;;3.80;3.50;;;23.80;99.90;;;24.33;nan;100407.31;4997120;28;20719;-68
2023/06/21 01:52:33;;;;;;;4.13;3.47;;;23.80;99.90;;;24.30;nan;100399.72;4977370;28;21185;-68
2023/06/21 01:55:05;;;;;;;5.47;3.70;;;23.70;99.90;;;24.26;nan;100401.13;4975150;28;20718;-68
2023/06/21 01:57:36;;;;;;;4.00;3.57;;;23.70;99.90;;;24.17;nan;100397.84;4993541;28;20637;-68
2023/06/21 02:00:15;;;;;;;5.17;3.37;;;23.60;99.90;;;24.08;nan;100408.91;4972595;28;20618;-68
2023/06/21 02:02:49;;;;;;;3.80;3.47;;;23.50;99.90;;;24.01;nan;100408.88;4988747;28;20622;-69
2023/06/21 02:05:17;;;;;;;4.13;3.47;;;23.40;99.90;;;23.92;nan;100410.09;4974791;28;21025;-68
2023/06/21 02:07:48;;;;;;;6.63;3.47;;;23.40;99.90;;;23.81;nan;100411.50;4978140;28;20658;-67
2023/06/21 02:10:18;;;;;;;3.43;3.13;;;23.30;99.90;;;23.72;nan;100410.03;4966401;28;21030;-68
2023/06/21 02:12:52;;;;;;;3.70;3.40;;;23.20;99.90;;;23.66;nan;100418.81;4990999;28;20634;-67
2023/06/21 02:15:19;;;;;;;4.73;3.27;;;23.10;99.90;;;23.62;nan;100416.75;4990054;28;20688;-68
2023/06/21 02:17:50;;;;;;;4.30;3.20;;;23.10;99.90;;;23.53;nan;100425.97;4991492;28;21007;-68
2023/06/21 02:20:22;;;;;;;3.53;3.20;;;23.00;99.90;;;23.50;nan;100432.50;4990530;28;20618;-67
2023/06/21 02:22:49;;;;;;;3.93;3.50;;;22.90;99.90;;;23.44;nan;100427.97;4992466;28;21225;-67
2023/06/21 02:25:17;;;;;;;5.87;3.40;;;22.90;99.90;;;23.47;nan;100427.56;4974925;28;20658;-67
2023/06/21 02:27:44;;;;;;;3.43;3.00;;;22.90;99.90;;;23.53;nan;100431.28;4974623;28;20654;-68
2023/06/21 02:30:11;;;;;;;4.60;4.13;;;22.90;99.90;;;23.54;nan;100439.06;4993263;28;20626;-69
2023/06/21 02:32:38;;;;;;;5.80;3.83;;;23.00;99.90;;;23.60;nan;100445.44;4991946;28;20650;-68
2023/06/21 02:35:06;;;;;;;5.93;4.13;;;23.00;99.90;;;23.64;nan;100452.00;4991773;28;20670;-68
2023/06/21 02:37:33;;;;;;;8.73;3.87;;;23.00;99.90;;;23.65;nan;100458.97;4993805;28;20649;-69
2023/06/21 02:40:09;;;;;;;5.70;4.00;;;23.10;99.90;;;23.61;nan;100465.72;4997875;28;20634;-68
2023/06/21 02:42:37;;;;;;;3.90;3.50;;;23.00;99.90;;;23.63;nan;100467.19;4975118;28;20621;-68
2023/06/21 02:45:05;;;;;;;5.33;3.87;;;23.00;99.90;;;23.68;nan;100469.25;4993655;28;20670;-69
2023/06/21 02:47:32;;;;;;;4.87;3.00;;;23.10;99.90;;;23.71;nan;100466.16;4996559;28;20641;-68
2023/06/21 02:49:59;;;;;;;3.00;2.73;;;23.20;99.90;;;23.72;nan;100468.63;4992546;28;20636;-67
2023/06/21 02:52:26;;;;;;;3.00;2.80;;;23.20;99.90;;;23.71;nan;100467.00;4991454;28;20657;-68
2023/06/21 02:54:53;;;;;;;6.30;3.67;;;23.20;99.90;;;23.73;nan;100474.78;4997655;28;20673;-67
2023/06/21 02:57:20;;;;;;;5.60;4.13;;;23.20;99.90;;;23.70;nan;100469.88;5003676;28;21208;-67
2023/06/21 02:59:49;;;;;;;4.17;3.17;;;23.10;99.90;;;23.73;nan;100482.78;4992773;28;20586;-68
2023/06/21 03:02:19;;;;;;;3.57;3.20;;;23.10;99.90;;;23.74;nan;100476.44;4973791;28;20650;-69
2023/06/21 03:04:46;;;;;;;5.10;3.80;;;23.20;99.90;;;23.76;nan;100479.72;4993192;28;20662;-69
2023/06/21 03:07:13;;;;;;;7.37;3.80;;;23.20;99.90;;;23.76;nan;100487.72;4992313;28;20629;-69
2023/06/21 03:09:40;;;;;;;5.40;3.83;;;23.20;99.90;;;23.74;nan;100489.75;4990604;28;20642;-68
2023/06/21 03:12:08;;;;;;;3.37;3.10;;;23.20;99.90;;;23.70;nan;100491.97;4996329;28;20640;-68
2023/06/21 03:14:39;;;;;;;4.03;3.67;;;23.20;99.90;;;23.67;nan;100496.91;5001915;28;20666;-68
2023/06/21 03:17:06;;;;;;;3.67;3.27;;;23.10;99.90;;;23.63;nan;100490.31;4990509;28;20630;-68
2023/06/21 03:19:33;;;;;;;3.27;2.97;;;23.10;99.90;;;23.52;nan;100494.38;4988778;28;20645;-68
2023/06/21 03:22:00;;;;;;;3.23;2.77;;;23.00;99.90;;;23.44;nan;100507.03;4989783;28;21213;-68
2023/06/21 03:24:32;;;;;;;3.87;2.93;;;22.90;99.90;;;23.39;nan;100514.75;4980177;28;20666;-67
2023/06/21 03:26:59;;;;;;;3.67;2.87;;;22.90;99.90;;;23.31;nan;100521.06;4991357;28;20606;-68
2023/06/21 03:29:26;;;;;;;4.30;3.43;;;22.80;99.90;;;23.23;nan;100520.38;4991913;28;20992;-68
2023/06/21 03:31:53;;;;;;;4.43;3.37;;;22.70;99.90;;;23.14;nan;100535.66;4998018;28;20691;-68
2023/06/21 03:34:20;;;;;;;4.83;3.17;;;22.60;99.90;;;23.10;nan;100543.22;5007838;28;20617;-69
2023/06/21 03:36:47;;;;;;;10.20;3.23;;;22.60;99.90;;;23.07;nan;100542.78;4995051;28;20677;-68
2023/06/21 03:39:14;;;;;;;3.93;3.27;;;22.50;99.90;;;23.04;nan;100546.63;4992164;28;20649;-68
2023/06/21 03:41:41;;;;;;;2.93;2.70;;;22.50;99.90;;;23.06;nan;100547.25;4991727;28;20641;-68
2023/06/21 03:44:08;;;;;;;3.80;3.33;;;22.50;99.90;;;23.08;nan;100549.75;4984026;28;20677;-69
2023/06/21 03:46:35;;;;;;;4.17;3.53;;;22.50;99.90;;;23.14;nan;100551.63;4984856;28;20646;-68
2023/06/21 03:49:04;;;;;;;4.03;2.97;;;22.60;99.90;;;23.21;nan;100552.53;4984915;28;20642;-68
2023/06/21 03:51:31;;;;;;;8.43;3.53;;;22.60;99.90;;;23.23;nan;100554.97;4983824;28;20673;-69
2023/06/21 03:53:58;;;;;;;4.40;3.70;;;22.60;99.90;;;23.16;nan;100557.59;4987872;28;20642;-68
2023/06/21 03:56:25;;;;;;;7.77;3.70;;;22.60;99.90;;;23.14;nan;100559.63;4990198;28;20674;-69
2023/06/21 03:58:52;;;;;;;4.77;3.53;;;22.50;99.90;;;23.17;nan;100566.41;4996697;28;22073;-67
2023/06/21 04:01:19;;;;;;;5.20;3.70;;;22.60;99.90;;;23.16;nan;100568.25;4983627;28;21100;-69
2023/06/21 04:03:46;;;;;;;5.97;3.93;;;22.60;99.90;;;23.09;nan;100585.97;4983418;28;20622;-70
2023/06/21 04:06:14;;;;;;;5.87;3.30;;;22.50;99.90;;;22.99;nan;100588.16;4983010;28;21547;-68
2023/06/21 04:08:40;;;;;;;2.70;2.00;;;22.50;99.90;;;22.93;nan;100612.88;4985270;28;20619;-67
2023/06/21 04:11:08;;;;;;;4.33;3.20;;;22.40;99.90;;;22.83;nan;100615.84;4988864;28;20646;-68
2023/06/21 04:13:35;;;;;;;7.53;4.60;;;22.30;99.90;;;22.79;nan;100614.56;4990377;28;20618;-68
2023/06/21 04:16:02;;;;;;;8.50;5.40;;;22.20;99.90;;;22.78;nan;100593.47;4974089;28;20674;-67
2023/06/21 04:18:29;;;;;;;6.57;4.67;;;22.20;99.90;;;22.79;nan;100597.78;4985681;28;20991;-68
2023/06/21 04:20:56;;;;;;;5.57;3.70;;;22.20;99.90;;;22.78;nan;100596.97;4977428;28;21524;-70
2023/06/21 04:23:26;;;;;;;5.57;4.40;;;22.20;99.90;;;22.81;nan;100593.09;4986355;28;20610;-67
2023/06/21 04:25:53;;;;;;;6.27;4.03;;;22.20;99.90;;;22.89;nan;100587.66;4987645;28;20670;-69
2023/06/21 04:28:24;;;;;;;5.03;4.33;;;22.30;99.90;;;22.95;nan;100584.22;4989372;28;20646;-68
2023/06/21 04:30:52;;;;;;;6.00;4.03;;;22.30;99.90;;;22.93;nan;100573.78;4988698;28;20633;-67
2023/06/21 04:33:19;;;;;;;11.30;3.93;;;22.40;99.90;;;22.91;nan;100570.47;4987849;28;20657;-66
2023/06/21 04:35:46;;;;;;;5.03;4.00;;;22.30;99.90;;;22.92;nan;100564.16;4990190;28;20674;-68
2023/06/21 04:38:13;;;;;;;4.57;3.40;;;22.30;99.90;;;22.92;nan;100553.50;4990316;28;20619;-69
2023/06/21 04:40:41;;;;;;;7.47;3.80;;;22.30;99.90;;;22.91;nan;100548.38;4996131;28;20988;-68
2023/06/21 04:43:09;;;;;;;5.97;4.13;;;22.30;99.90;;;22.94;nan;100527.53;5007520;28;21248;-68
2023/06/21 04:45:36;;;;;;;6.40;4.20;;;22.40;99.90;;;23.01;nan;100522.25;5003271;28;21034;-69
2023/06/21 04:48:04;;;;;;;4.27;3.87;;;22.40;99.90;;;23.06;nan;100525.97;4989505;28;20618;-68
2023/06/21 04:50:32;;;;;;;9.10;4.30;;;22.50;99.90;;;23.09;nan;100520.28;4994503;28;21272;-69
2023/06/21 04:52:59;;;;;;;5.30;4.23;;;22.50;99.90;;;23.10;nan;100521.94;4988629;28;20647;-68
2023/06/21 04:55:27;;;;;;;5.40;4.90;;;22.60;99.90;;;23.19;nan;100529.78;4992750;28;20669;-68
2023/06/21 04:57:55;;;;;;;5.27;4.70;;;22.60;99.90;;;23.27;nan;100526.94;5000534;28;20634;-68
2023/06/21 05:00:22;;;;;;;4.83;4.37;;;22.70;99.90;;;23.39;nan;100525.41;4989083;28;20630;-68
2023/06/21 05:02:49;;;;;;;9.20;4.17;;;22.80;99.90;;;23.45;nan;100506.81;4990128;28;20646;-68
2023/06/21 05:05:17;;;;;;;5.67;4.50;;;22.90;99.90;;;23.52;nan;100493.53;4988453;28;21253;-68
2023/06/21 05:07:44;;;;;;;6.50;4.83;;;22.90;99.90;;;23.59;nan;100489.91;5003597;28;20638;-68
2023/06/21 05:10:11;;;;;;;8.17;4.70;;;23.00;99.90;;;23.67;nan;100489.72;5004493;28;21181;-67
2023/06/21 05:12:38;;;;;;;5.23;4.73;;;23.10;99.90;;;23.73;nan;100501.44;4968940;28;20613;-68
2023/06/21 05:15:06;;;;;;;5.10;4.20;;;23.10;99.90;;;23.79;nan;100532.59;4994335;28;21260;-68
2023/06/21 05:17:34;;;;;;;4.53;3.87;;;23.20;99.90;;;23.88;nan;100550.06;5010643;28;20626;-68
2023/06/21 05:20:08;;;;;;;4.70;4.17;;;23.30;99.90;;;24.02;nan;100561.63;4979469;28;20638;-68
2023/06/21 05:22:35;;;;;;;5.80;3.80;;;23.40;99.90;;;24.10;nan;100564.13;4996643;28;20630;-68
2023/06/21 05:25:03;;;;;;;3.67;3.37;;;23.50;99.90;;;24.10;nan;100574.81;4994062;28;20785;-67
2023/06/21 05:27:30;;;;;;;5.03;4.00;;;23.60;99.90;;;24.06;nan;100577.06;4979619;28;20622;-68
2023/06/21 05:29:57;;;;;;;4.60;4.00;;;23.50;99.90;;;23.96;nan;100579.22;4995021;28;21322;-68
2023/06/21 05:32:25;;;;;;;10.30;3.67;;;23.40;99.90;;;23.85;nan;100564.59;4996692;28;20653;-67
2023/06/21 05:34:53;;;;;;;5.70;3.77;;;23.30;99.90;;;23.73;nan;100568.03;4994070;28;20670;-69
2023/06/21 05:37:20;;;;;;;3.83;3.20;;;23.20;99.90;;;23.53;nan;100586.53;5006926;28;20798;-67
2023/06/21 05:39:47;;;;;;;4.47;3.50;;;23.00;99.90;;;23.34;nan;100584.56;4994524;28;20665;-68
2023/06/21 05:42:14;;;;;;;5.40;3.87;;;22.80;99.90;;;23.30;nan;100587.81;5000796;28;21236;-68
2023/06/21 05:44:41;;;;;;;3.13;2.87;;;22.80;99.90;;;23.27;nan;100588.19;4994074;28;20704;-69
2023/06/21 05:47:08;;;;;;;6.83;3.87;;;22.80;99.90;;;23.22;nan;100614.53;5008166;28;20629;-67
2023/06/21 05:49:35;;;;;;;4.20;3.10;;;22.70;99.90;;;23.19;nan;100622.94;5016265;28;20613;-67
2023/06/21 05:52:02;;;;;;;7.03;4.33;;;22.70;99.90;;;23.21;nan;100627.06;5006584;28;20645;-68
2023/06/21 05:54:29;;;;;;;4.70;3.77;;;22.60;99.90;;;23.19;nan;100629.09;4991458;28;21082;-68
2023/06/21 05:56:56;;;;;;;4.47;3.63;;;22.70;99.90;;;23.14;nan;100627.00;4989760;28;21264;-68
2023/06/21 05:59:23;;;;;;;6.43;3.90;;;22.60;99.90;;;23.31;nan;100629.38;4989547;28;20630;-69
2023/06/21 06:01:50;;;;;;;7.10;4.40;;;22.70;99.90;;;23.91;nan;100633.09;4988895;28;21022;-67
2023/06/21 06:04:17;;;;;;;4.20;3.80;;;23.20;99.90;;;24.52;nan;100628.69;4988947;28;20635;-68
2023/06/21 06:06:44;;;;;;;3.97;3.47;;;23.80;99.90;;;25.02;nan;100637.25;4987533;28;21230;-67
2023/06/21 06:09:11;;;;;;;5.03;3.97;;;24.40;99.90;;;25.35;nan;100654.09;4989481;28;21276;-69
2023/06/21 06:11:38;;;;;;;5.43;3.30;;;24.70;99.90;;;25.73;nan;100636.44;4978567;28;20642;-68
2023/06/21 06:14:05;;;;;;;13.03;3.60;;;25.10;99.90;;;26.24;nan;100644.56;4997735;28;20634;-68
2023/06/21 06:16:32;;;;;;;4.73;3.30;;;25.50;99.90;;;26.79;nan;100649.25;4996096;28;20674;-68
2023/06/21 06:19:01;;;;;;;3.50;2.80;;;26.00;99.90;;;27.36;nan;100645.59;4994400;28;20614;-67
2023/06/21 06:21:28;;;;;;;3.47;2.77;;;26.60;99.90;;;27.83;nan;100646.81;4977401;28;20618;-67
2023/06/21 06:23:55;;;;;;;4.67;4.10;;;27.10;99.90;;;28.23;nan;100655.25;5000488;28;21177;-67
2023/06/21 06:26:25;;;;;;;2.93;2.63;;;27.50;99.90;;;28.40;nan;100664.34;4992270;28;20681;-69
2023/06/21 06:28:54;;;;;;;6.23;3.63;;;27.70;99.90;;;28.43;nan;100663.88;4975150;28;20661;-68
2023/06/21 06:31:26;;;;;;;5.17;3.30;;;27.80;99.90;;;28.69;nan;100668.94;5000886;28;20996;-67
2023/06/21 06:33:53;;;;;;;4.93;3.80;;;28.00;99.90;;;28.90;nan;100667.63;4998413;28;20613;-68
2023/06/21 06:36:20;;;;;;;10.90;3.90;;;28.20;99.90;;;28.95;nan;100676.63;4994596;28;20685;-68
2023/06/21 06:38:48;;;;;;;3.63;3.13;;;28.30;99.90;;;29.16;nan;100678.00;4994453;28;21338;-67
2023/06/21 06:41:17;;;;;;;4.67;3.80;;;28.50;99.90;;;29.08;nan;100676.44;4991728;28;21204;-69
2023/06/21 06:43:45;;;;;;;4.73;3.63;;;28.50;99.90;;;29.76;nan;100684.06;4992370;28;20634;-68
2023/06/21 06:46:12;;;;;;;5.30;3.30;;;29.10;99.90;;;29.58;nan;100684.16;4990417;28;20662;-68
2023/06/21 06:48:39;;;;;;;3.60;3.30;;;29.10;99.90;;;29.21;nan;100683.50;4992678;28;20630;-68
2023/06/21 06:51:06;;;;;;;4.80;3.47;;;28.80;99.90;;;28.70;nan;100686.69;4989541;28;20642;-68
2023/06/21 06:53:33;;;;;;;3.50;3.10;;;28.30;99.90;;;28.47;nan;100672.31;4994653;28;20621;-68
2023/06/21 06:56:00;;;;;;;4.80;3.00;;;28.00;99.90;;;28.32;nan;100672.69;4995558;28;21548;-68
2023/06/21 06:58:28;;;;;;;3.60;3.30;;;27.80;99.90;;;28.40;nan;100678.59;4993413;28;22266;-68
2023/06/21 07:00:55;;;;;;;4.60;3.83;;;27.80;99.90;;;29.15;nan;100679.84;4997574;28;20648;-68
2023/06/21 07:03:23;;;;;;;3.80;3.43;;;28.40;99.90;;;29.98;nan;100687.78;4973794;28;20614;-68
2023/06/21 07:05:50;;;;;;;3.80;3.40;;;29.20;99.90;;;30.54;nan;100692.47;4991260;28;20715;-67
2023/06/21 07:08:18;;;;;;;3.40;3.10;;;29.80;99.90;;;31.33;nan;100700.47;4993375;28;20621;-69
2023/06/21 07:10:45;;;;;;;3.07;2.87;;;30.60;99.90;;;32.07;nan;100699.22;4970204;28;20856;-68
2023/06/21 07:13:12;;;;;;;3.53;2.60;;;31.40;99.90;;;32.99;nan;100701.97;4990558;28;20618;-68
2023/06/21 07:15:39;;;;;;;4.20;3.10;;;32.30;99.80;;;33.48;nan;100708.09;4989699;28;20747;-69
2023/06/21 07:18:06;;;;;;;3.57;3.37;;;32.90;97.80;;;33.21;nan;100705.44;4991506;28;20704;-68
2023/06/21 07:20:34;;;;;;;4.13;3.83;;;32.70;97.30;;;32.62;nan;100701.84;4985108;28;20685;-67
2023/06/21 07:23:02;;;;;;;3.07;2.87;;;32.20;97.40;;;31.85;nan;100711.00;5001890;28;20618;-68
2023/06/21 07:25:29;;;;;;;4.40;3.60;;;31.50;97.60;;;31.07;nan;100694.88;4988652;28;20666;-68
2023/06/21 07:27:56;;;;;;;2.53;2.33;;;30.70;98.20;;;30.78;nan;100695.91;4973796;28;20634;-68
2023/06/21 07:30:23;;;;;;;3.70;3.40;;;30.30;99.00;;;30.98;nan;100701.72;4970325;28;20635;-68
2023/06/21 07:32:51;;;;;;;3.27;3.07;;;30.40;98.80;;;31.09;nan;100692.75;4972985;28;20684;-68
2023/06/21 07:35:18;;;;;;;3.63;3.33;;;30.50;98.50;;;31.08;nan;100688.41;4992463;28;20732;-68
2023/06/21 07:37:45;;;;;;;4.77;3.20;;;30.50;98.60;;;31.01;nan;100687.75;4991187;28;21258;-69
2023/06/21 07:40:13;;;;;;;3.10;2.90;;;30.40;98.60;;;30.87;nan;100697.19;4990444;28;20652;-68
2023/06/21 07:42:41;;;;;;;3.60;3.30;;;30.30;98.30;;;30.88;nan;100693.47;4990233;28;20614;-68
2023/06/21 07:45:09;;;;;;;3.77;3.40;;;30.30;98.50;;;30.71;nan;100697.94;4992745;28;20663;-67
2023/06/21 07:47:36;;;;;;;3.50;3.20;;;30.10;98.40;;;30.35;nan;100682.94;5001512;28;20991;-70
2023/06/21 07:50:05;;;;;;;3.10;2.90;;;29.80;98.90;;;30.42;nan;100684.47;4991382;28;20679;-68
2023/06/21 07:52:35;;;;;;;3.80;3.43;;;29.80;99.00;;;30.51;nan;100674.13;4994423;28;20611;-68
2023/06/21 07:55:05;;;;;;;3.23;3.03;;;29.80;99.00;;;30.64;nan;100676.53;4989244;28;20699;-68
2023/06/21 07:57:32;;;;;;;3.17;2.87;;;30.00;98.70;;;30.50;nan;100677.88;4994315;28;20669;-68
2023/06/21 08:00:08;;;;;;;2.27;2.13;;;29.90;98.30;;;30.31;nan;100676.41;4996134;28;20646;-67
2023/06/21 08:02:36;;;;;;;2.63;2.47;;;29.70;98.50;;;30.27;nan;100670.66;5002046;28;20621;-67
2023/06/21 08:05:04;;;;;;;3.00;2.80;;;29.60;98.50;;;30.30;nan;100663.97;4989993;28;21224;-68
2023/06/21 08:07:31;;;;;;;2.97;2.67;;;29.60;98.80;;;30.67;nan;100661.78;4972949;28;20637;-68
2023/06/21 08:09:58;;;;;;;5.00;3.63;;;29.90;98.60;;;30.95;nan;100664.47;4991688;28;21406;-67
2023/06/21 08:12:25;;;;;;;3.07;2.90;;;30.20;98.30;;;31.45;nan;100676.16;4993479;28;20622;-68
2023/06/21 08:14:52;;;;;;;4.00;3.60;;;30.70;97.90;;;31.90;nan;100666.03;4998369;28;20669;-71
2023/06/21 08:17:19;;;;;;;5.53;4.30;;;31.20;97.30;;;32.06;nan;100656.28;4997316;28;20654;-68
2023/06/21 08:19:46;;;;;;;3.30;3.10;;;31.40;96.50;;;32.04;nan;100664.63;4987934;28;20622;-67
2023/06/21 08:22:13;;;;;;;3.03;2.80;;;31.50;96.30;;;32.27;nan;100666.28;4993077;28;20638;-68
2023/06/21 08:24:40;;;;;;;3.10;2.80;;;31.60;95.80;;;32.37;nan;100673.69;4986690;28;21388;-69
2023/06/21 08:27:08;;;;;;;2.93;2.70;;;31.80;95.30;;;32.27;nan;100684.34;4989234;28;20622;-69
2023/06/21 08:29:35;;;;;;;3.13;2.93;;;31.70;95.20;;;32.01;nan;100697.50;4989060;28;21021;-69
2023/06/21 08:32:04;;;;;;;2.40;2.17;;;31.50;95.10;;;31.63;nan;100710.94;4989599;28;20654;-69
2023/06/21 08:34:32;;;;;;;2.87;2.70;;;31.10;95.30;;;31.28;nan;100713.03;4975062;28;21212;-68
2023/06/21 08:36:59;;;;;;;5.50;3.43;;;30.80;96.00;;;30.92;nan;100711.59;4988180;28;20681;-68
2023/06/21 08:39:26;;;;;;;2.90;2.70;;;30.50;96.20;;;30.70;nan;100712.47;4995863;28;20633;-68
2023/06/21 08:41:56;;;;;;;2.93;2.73;;;30.20;96.40;;;30.52;nan;100713.44;4988366;28;20622;-67
2023/06/21 08:44:23;;;;;;;3.30;3.07;;;30.00;96.80;;;30.29;nan;100721.53;4971458;28;20649;-69
2023/06/21 08:46:51;;;;;;;1.80;1.70;;;29.80;97.00;;;30.10;nan;100714.66;4983426;28;20669;-68
2023/06/21 08:49:20;;;;;;;2.80;2.27;;;29.60;96.90;;;29.87;nan;100716.34;4976837;28;20657;-68
2023/06/21 08:51:50;;;;;;;3.33;3.03;;;29.30;97.10;;;29.80;nan;100730.94;4971052;28;20646;-70
2023/06/21 08:54:24;;;;;;;3.60;3.27;;;29.20;97.30;;;29.91;nan;100732.81;4998758;28;20713;-67
2023/06/21 08:57:20;;;;;;;12.30;8.50;;;29.30;97.60;;;29.97;nan;100737.25;4972006;28;21236;-67
2023/06/21 08:59:57;;;;;;;5.23;4.63;;;29.30;97.30;;;30.08;nan;100732.94;4997145;28;20623;-67
2023/06/21 09:02:58;;;;;;;15.23;10.13;;;29.40;97.40;;;30.03;nan;100728.25;4974895;28;20629;-68
2023/06/21 09:05:58;;;;;;;3.70;3.40;;;29.40;97.40;;;30.08;nan;100720.31;4982425;28;20662;-69
2023/06/21 09:08:26;;;;;;;2.73;2.53;;;29.40;97.50;;;30.24;nan;100718.78;4990026;28;21017;-69
2023/06/21 09:10:53;;;;;;;4.37;3.00;;;29.60;98.00;;;30.26;nan;100713.97;4990351;28;20689;-68
2023/06/21 09:13:24;;;;;;;3.43;2.83;;;29.60;97.10;;;30.19;nan;100711.41;4996003;28;21194;-68
2023/06/21 09:15:52;;;;;;;4.43;3.17;;;29.60;96.90;;;30.15;nan;100702.16;4992610;28;20662;-69
2023/06/21 09:18:19;;;;;;;2.83;2.60;;;29.50;96.90;;;30.21;nan;100706.59;4987186;28;20656;-68
2023/06/21 09:20:48;;;;;;;4.13;2.47;;;29.60;96.90;;;29.96;nan;100705.22;4988081;28;20642;-69
2023/06/21 09:23:16;;;;;;;2.83;2.63;;;29.40;96.80;;;29.49;nan;100712.41;4998077;28;20634;-67
2023/06/21 09:25:44;;;;;;;3.20;2.23;;;29.00;97.50;;;30.53;nan;100721.31;4984830;28;20674;-65
2023/06/21 09:28:12;;;;;;;4.27;3.00;;;29.70;97.30;;;31.70;nan;100733.19;4989666;28;20629;-67
2023/06/21 09:30:41;;;;;;;2.90;2.70;;;30.90;95.50;;;32.64;nan;100718.63;4976303;28;21011;-66
2023/06/21 09:33:08;;;;;;;2.87;2.63;;;31.90;94.30;;;32.99;nan;100725.50;4991889;28;20629;-67
2023/06/21 09:35:38;;;;;;;3.07;2.87;;;32.30;92.80;;;33.21;nan;100737.88;4969065;28;20728;-66
2023/06/21 09:38:28;;;;;;;2.70;2.50;;;32.50;92.90;;;33.84;nan;100745.19;4989967;28;20665;-66
2023/06/21 09:40:56;;;;;;;3.00;2.80;;;33.10;91.90;;;34.07;nan;100746.75;4970368;28;21250;-68
2023/06/21 09:43:23;;;;;;;2.67;2.50;;;33.40;91.10;;;33.54;nan;100753.91;5001422;28;20636;-66
2023/06/21 09:46:09;;;;;;;3.03;2.83;;;33.10;90.80;;;32.91;nan;100751.06;5000162;28;20658;-66
2023/06/21 09:48:38;;;;;;;2.80;2.60;;;32.50;91.00;;;32.54;nan;100750.09;4977040;28;20633;-66
2023/06/21 09:51:17;;;;;;;3.90;3.30;;;32.20;91.60;;;31.97;nan;100734.16;5000078;28;20642;-65
2023/06/21 09:53:48;;;;;;;3.37;3.07;;;31.50;92.60;;;32.06;nan;100740.78;5001203;28;20641;-65
2023/06/21 09:56:19;;;;;;;3.90;3.50;;;31.50;93.20;;;32.24;nan;100738.88;4992716;28;20885;-66
2023/06/21 09:58:50;;;;;;;2.80;2.60;;;31.60;92.90;;;32.56;nan;100742.56;4993022;28;20661;-64
2023/06/21 10:01:17;;;;;;;3.03;2.83;;;31.90;92.70;;;32.47;nan;100744.06;4990529;28;20625;-65
2023/06/21 10:03:46;;;;;;;2.70;2.50;;;31.90;91.80;;;32.36;nan;100748.47;4992732;28;20725;-66
2023/06/21 10:06:16;;;;;;;3.13;2.80;;;31.70;92.00;;;32.22;nan;100744.53;4990990;28;20668;-65
2023/06/21 10:08:49;;;;;;;3.23;2.87;;;31.60;92.50;;;32.03;nan;100738.56;4991934;28;20669;-64
2023/06/21 10:11:17;;;;;;;2.67;2.47;;;31.40;93.10;;;31.70;nan;100737.75;4991250;28;20649;-65
2023/06/21 10:13:44;;;;;;;3.13;2.83;;;31.10;93.60;;;31.22;nan;100736.38;4990971;28;20645;-65
2023/06/21 10:16:11;;;;;;;3.20;2.50;;;30.70;94.70;;;30.80;nan;100735.03;4992840;28;21247;-65
2023/06/21 10:18:38;;;;;;;3.77;3.27;;;30.20;95.50;;;30.57;nan;100729.72;4971377;28;20670;-64
2023/06/21 10:21:07;;;;;;;2.90;2.60;;;30.00;96.20;;;30.36;nan;100719.59;4989745;28;21236;-66
2023/06/21 10:23:38;;;;;;;3.33;2.63;;;29.80;96.70;;;30.25;nan;100729.28;4992116;28;20990;-65
2023/06/21 10:26:06;;;;;;;4.67;3.50;;;29.70;96.90;;;30.24;nan;100724.94;4979742;28;20682;-64
2023/06/21 10:28:39;;;;;;;3.27;3.03;;;29.60;97.10;;;30.27;nan;100727.19;4989106;28;20626;-64
2023/06/21 10:31:09;;;;;;;3.43;3.10;;;29.60;97.10;;;30.27;nan;100737.94;4989526;28;21025;-65
2023/06/21 10:33:37;;;;;;;3.90;3.10;;;29.60;97.20;;;30.14;nan;100738.19;4989694;28;21189;-65